createdAt,value
2022-12-09T00:00:06.755Z,13.83
2022-12-09T00:02:54.003Z,5.97
2022-12-09T00:05:42.510Z,17.53
2022-12-09T00:08:29.386Z,9.37
2022-12-09T00:11:16.489Z,7.10
2022-12-09T00:14:03.230Z,9.00
2022-12-09T00:16:51.643Z,9.50
2022-12-09T00:19:38.691Z,6.67
2022-12-09T00:22:27.870Z,9.80
2022-12-09T00:25:14.464Z,11.57
2022-12-09T00:28:01.597Z,9.77
2022-12-09T00:30:48.393Z,6.27
2022-12-09T00:33:37.200Z,8.00
2022-12-09T00:36:25.880Z,6.33
2022-12-09T00:39:13.391Z,12.47
2022-12-09T00:42:00.026Z,11.87
2022-12-09T00:44:48.299Z,12.63
2022-12-09T00:47:35.257Z,14.73
2022-12-09T00:50:23.461Z,11.00
2022-12-09T00:53:10.130Z,16.57
2022-12-09T00:55:56.930Z,11.07
2022-12-09T00:58:43.486Z,11.80
2022-12-09T01:01:30.988Z,11.97
2022-12-09T01:04:18.248Z,15.03
2022-12-09T01:07:06.526Z,12.30
2022-12-09T01:09:53.272Z,10.47
2022-12-09T01:12:40.713Z,11.07
2022-12-09T01:15:27.890Z,11.20
2022-12-09T01:18:15.058Z,10.27
2022-12-09T01:21:02.011Z,7.43
2022-12-09T01:23:50.857Z,7.30
2022-12-09T01:26:38.622Z,7.63
2022-12-09T01:29:25.902Z,7.87
2022-12-09T01:32:12.543Z,13.20
2022-12-09T01:34:59.821Z,9.97
2022-12-09T01:37:46.757Z,11.10
2022-12-09T01:40:34.742Z,8.03
2022-12-09T01:43:24.385Z,10.83
2022-12-09T01:46:11.555Z,8.80
2022-12-09T01:48:58.134Z,8.50
2022-12-09T01:51:48.218Z,8.37
2022-12-09T01:54:35.396Z,11.83
2022-12-09T01:57:25.141Z,12.30
2022-12-09T02:00:13.695Z,9.87
2022-12-09T02:03:03.678Z,10.70
2022-12-09T02:05:51.623Z,11.83
2022-12-09T02:08:39.115Z,10.60
2022-12-09T02:11:35.962Z,7.47
2022-12-09T02:14:28.514Z,12.97
2022-12-09T02:17:27.260Z,14.47
2022-12-09T02:20:24.806Z,13.87
2022-12-09T02:23:17.096Z,16.43
2022-12-09T02:26:29.897Z,12.37
2022-12-09T02:29:37.385Z,22.57
2022-12-09T02:32:40.081Z,14.30
2022-12-09T02:35:39.428Z,14.13
2022-12-09T02:38:29.116Z,17.73
2022-12-09T02:41:20.339Z,18.40
2022-12-09T02:44:13.749Z,14.37
2022-12-09T02:47:00.769Z,12.90
2022-12-09T02:49:51.847Z,12.53
2022-12-09T02:52:43.892Z,14.03
2022-12-09T02:55:33.050Z,9.33
2022-12-09T02:58:20.054Z,11.07
2022-12-09T03:01:08.201Z,10.57
2022-12-09T03:03:56.541Z,11.40
2022-12-09T03:06:48.537Z,12.20
2022-12-09T03:09:41.620Z,13.73
2022-12-09T03:12:33.758Z,12.20
2022-12-09T03:15:26.370Z,13.80
2022-12-09T03:18:16.909Z,16.40
2022-12-09T03:21:05.459Z,13.60
2022-12-09T03:23:56.117Z,14.40
2022-12-09T03:26:45.311Z,12.13
2022-12-09T03:29:36.346Z,13.10
2022-12-09T03:32:28.233Z,13.37
2022-12-09T03:35:20.741Z,14.43
2022-12-09T03:38:11.644Z,15.10
2022-12-09T03:41:04.851Z,16.50
2022-12-09T03:43:56.846Z,18.53
2022-12-09T03:46:43.844Z,19.57
2022-12-09T03:49:30.903Z,17.33
2022-12-09T03:52:21.981Z,16.77
2022-12-09T03:55:15.698Z,18.10
2022-12-09T03:58:04.524Z,18.70
2022-12-09T04:00:52.780Z,20.07
2022-12-09T04:03:40.171Z,23.07
2022-12-09T04:06:27.863Z,19.73
2022-12-09T04:09:14.872Z,16.67
2022-12-09T04:12:01.565Z,16.83
2022-12-09T04:14:48.550Z,21.07
2022-12-09T04:17:36.939Z,18.40
2022-12-09T04:20:23.939Z,18.60
2022-12-09T04:23:10.791Z,20.17
2022-12-09T04:25:57.814Z,19.20
2022-12-09T04:28:45.167Z,21.43
2022-12-09T04:31:31.696Z,15.83
2022-12-09T04:34:19.810Z,20.30
2022-12-09T04:37:06.795Z,19.80
2022-12-09T04:39:53.572Z,16.70
2022-12-09T04:42:40.467Z,22.93
2022-12-09T04:45:27.355Z,17.60
2022-12-09T04:48:14.169Z,21.80
2022-12-09T04:51:02.451Z,19.93
2022-12-09T04:53:49.461Z,21.10
2022-12-09T04:56:36.497Z,19.77
2022-12-09T04:59:23.729Z,22.73
2022-12-09T05:02:10.592Z,23.43
2022-12-09T05:04:57.595Z,25.13
2022-12-09T05:07:46.985Z,36.00
2022-12-09T05:10:34.711Z,27.20
2022-12-09T05:13:22.005Z,20.57
2022-12-09T05:16:16.019Z,28.37
2022-12-09T05:19:03.995Z,24.83
2022-12-09T05:21:51.328Z,24.70
2022-12-09T05:24:41.200Z,30.87
2022-12-09T05:27:28.186Z,25.27
2022-12-09T05:30:15.896Z,22.23
2022-12-09T05:33:02.796Z,22.17
2022-12-09T05:35:53.057Z,22.77
2022-12-09T05:38:40.477Z,22.83
2022-12-09T05:41:29.182Z,25.37
2022-12-09T05:44:16.438Z,21.53
2022-12-09T05:47:03.704Z,26.80
2022-12-09T05:49:50.898Z,22.17
2022-12-09T05:52:39.161Z,23.67
2022-12-09T05:55:26.055Z,30.73
2022-12-09T05:58:14.919Z,27.57
2022-12-09T06:01:06.279Z,24.97
2022-12-09T06:03:54.771Z,22.67
2022-12-09T06:06:42.302Z,28.83
2022-12-09T06:09:29.307Z,31.27
2022-12-09T06:12:16.985Z,28.00
2022-12-09T06:15:09.637Z,26.63
2022-12-09T06:17:58.123Z,25.53
2022-12-09T06:20:45.020Z,26.53
2022-12-09T06:23:32.686Z,23.30
2022-12-09T06:26:21.556Z,29.27
2022-12-09T06:29:08.265Z,25.97
2022-12-09T06:31:57.124Z,26.43
2022-12-09T06:34:44.751Z,29.63
2022-12-09T06:37:32.721Z,26.70
2022-12-09T06:40:22.720Z,25.80
2022-12-09T06:43:09.269Z,26.93
2022-12-09T06:45:56.488Z,36.60
2022-12-09T06:48:44.783Z,26.57
2022-12-09T06:51:31.412Z,27.03
2022-12-09T06:54:18.640Z,25.00
2022-12-09T06:57:05.610Z,25.20
2022-12-09T06:59:52.401Z,31.57
2022-12-09T07:02:39.071Z,25.43
2022-12-09T07:05:28.169Z,28.67
2022-12-09T07:08:15.471Z,25.43
2022-12-09T07:11:02.842Z,30.73
2022-12-09T07:13:50.322Z,25.50
2022-12-09T07:16:38.305Z,32.10
2022-12-09T07:19:25.527Z,24.97
2022-12-09T07:22:14.009Z,30.67
2022-12-09T07:25:00.987Z,29.73
2022-12-09T07:27:47.834Z,28.80
2022-12-09T07:30:34.568Z,28.03
2022-12-09T07:33:21.845Z,28.30
2022-12-09T07:36:09.068Z,26.97
2022-12-09T07:38:58.076Z,37.80
2022-12-09T07:41:45.432Z,34.13
2022-12-09T07:44:32.574Z,30.73
2022-12-09T07:47:19.115Z,34.87
2022-12-09T07:50:07.835Z,38.20
2022-12-09T07:52:54.320Z,28.37
2022-12-09T07:55:42.708Z,30.80
2022-12-09T07:58:29.410Z,37.10
2022-12-09T08:01:19.643Z,27.80
2022-12-09T08:04:08.105Z,33.27
2022-12-09T08:06:55.081Z,30.20
2022-12-09T08:09:42.156Z,30.17
2022-12-09T08:12:30.293Z,31.30
2022-12-09T08:15:19.536Z,31.37
2022-12-09T08:18:06.438Z,39.17
2022-12-09T08:20:53.437Z,32.83
2022-12-09T08:23:41.144Z,27.40
2022-12-09T08:26:29.593Z,34.47
2022-12-09T08:29:18.539Z,33.70
2022-12-09T08:32:05.657Z,35.50
2022-12-09T08:34:53.172Z,38.83
2022-12-09T08:37:43.216Z,37.93
2022-12-09T08:40:30.266Z,35.37
2022-12-09T08:43:17.896Z,38.10
2022-12-09T08:46:06.332Z,35.73
2022-12-09T08:48:52.919Z,39.53
2022-12-09T08:51:39.856Z,36.33
2022-12-09T08:54:26.858Z,39.13
2022-12-09T08:57:14.154Z,33.47
2022-12-09T09:00:00.727Z,37.57
2022-12-09T09:02:50.358Z,44.60
2022-12-09T09:05:39.234Z,32.27
2022-12-09T09:08:27.442Z,32.03
2022-12-09T09:11:18.871Z,35.53
2022-12-09T09:14:08.494Z,28.30
2022-12-09T09:17:01.052Z,42.17
2022-12-09T09:19:51.682Z,34.73
2022-12-09T09:22:39.600Z,36.63
2022-12-09T09:25:26.288Z,43.53
2022-12-09T09:28:14.970Z,37.30
2022-12-09T09:31:02.505Z,35.27
2022-12-09T09:33:51.936Z,43.83
2022-12-09T09:36:41.748Z,36.20
2022-12-09T09:39:29.420Z,33.60
2022-12-09T09:42:20.988Z,42.40
2022-12-09T09:45:13.904Z,37.73
2022-12-09T09:48:04.841Z,41.23
2022-12-09T09:50:58.519Z,34.10
2022-12-09T09:53:51.418Z,34.73
2022-12-09T09:56:44.034Z,39.70
2022-12-09T09:59:42.884Z,33.77
2022-12-09T10:02:53.504Z,35.23
2022-12-09T10:05:51.062Z,38.57
2022-12-09T10:08:49.608Z,40.03
2022-12-09T10:11:47.222Z,38.80
2022-12-09T10:14:42.874Z,33.30
2022-12-09T10:17:36.432Z,43.07
2022-12-09T10:20:27.508Z,41.73
2022-12-09T10:23:16.427Z,40.80
2022-12-09T10:26:06.887Z,38.07
2022-12-09T10:29:00.630Z,33.63
2022-12-09T10:31:47.448Z,35.67
2022-12-09T10:34:34.703Z,30.27
2022-12-09T10:37:31.436Z,30.40
2022-12-09T10:40:24.997Z,36.27
2022-12-09T10:43:39.526Z,41.97
2022-12-09T10:46:28.386Z,32.73
2022-12-09T10:49:22.203Z,33.47
2022-12-09T10:52:10.001Z,29.90
2022-12-09T10:54:57.336Z,35.97
2022-12-09T10:57:44.596Z,33.07
2022-12-09T11:00:34.948Z,38.97
2022-12-09T11:03:29.736Z,30.90
2022-12-09T11:06:23.706Z,39.20
2022-12-09T11:09:23.412Z,27.27
2022-12-09T11:12:19.352Z,31.23
2022-12-09T11:15:23.245Z,32.33
2022-12-09T11:18:20.291Z,35.53
2022-12-09T11:21:28.874Z,29.50
2022-12-09T11:24:24.858Z,42.93
2022-12-09T11:27:26.741Z,38.13
2022-12-09T11:30:17.760Z,37.60
2022-12-09T11:33:20.453Z,35.60
2022-12-09T11:36:19.279Z,39.43
2022-12-09T11:39:18.645Z,38.53
2022-12-09T11:42:18.947Z,35.17
2022-12-09T11:45:19.917Z,29.73
2022-12-09T11:48:32.829Z,37.00
2022-12-09T11:51:24.016Z,41.73
2022-12-09T11:54:16.659Z,41.80
2022-12-09T11:57:06.480Z,26.93
2022-12-09T11:59:57.461Z,37.83
2022-12-09T12:02:48.795Z,28.37
2022-12-09T12:05:40.266Z,40.27
2022-12-09T12:08:32.988Z,39.33
2022-12-09T12:11:23.383Z,33.50
2022-12-09T12:14:16.946Z,32.60
2022-12-09T12:17:18.186Z,29.63
2022-12-09T12:20:08.968Z,23.93
2022-12-09T12:23:15.509Z,26.93
2022-12-09T12:26:09.963Z,22.97
2022-12-09T12:29:12.297Z,31.20
2022-12-09T12:32:22.720Z,29.73
2022-12-09T12:35:22.956Z,29.57
2022-12-09T12:38:22.688Z,34.60
2022-12-09T12:41:18.181Z,53.07
2022-12-09T12:44:38.160Z,33.07
2022-12-09T12:47:30.553Z,42.37
2022-12-09T12:50:44.483Z,35.03
2022-12-09T12:53:40.263Z,29.27
2022-12-09T12:56:32.903Z,27.40
2022-12-09T12:59:28.258Z,36.43
2022-12-09T13:02:32.256Z,33.17
2022-12-09T13:05:23.751Z,29.93
2022-12-09T13:08:18.552Z,35.37
2022-12-09T13:11:10.479Z,29.70
2022-12-09T13:14:02.892Z,30.03
2022-12-09T13:16:50.500Z,23.27
2022-12-09T13:19:41.221Z,21.60
2022-12-09T13:22:32.858Z,30.77
2022-12-09T13:25:29.174Z,25.27
2022-12-09T13:28:23.385Z,31.63
2022-12-09T13:31:11.838Z,35.57
2022-12-09T13:34:09.050Z,30.50
2022-12-09T13:36:55.773Z,31.90
2022-12-09T13:39:58.265Z,28.87
2022-12-09T13:43:01.527Z,29.03
2022-12-09T13:45:52.640Z,27.47
2022-12-09T13:48:48.904Z,27.77
2022-12-09T13:51:46.142Z,32.40
2022-12-09T13:54:32.729Z,23.40
2022-12-09T13:57:32.348Z,26.23
2022-12-09T14:00:19.831Z,25.50
2022-12-09T14:03:23.187Z,33.43
2022-12-09T14:06:24.008Z,35.07
2022-12-09T14:09:26.104Z,28.73
2022-12-09T14:12:14.577Z,24.97
2022-12-09T14:15:02.619Z,25.37
2022-12-09T14:18:01.568Z,26.77
2022-12-09T14:21:30.005Z,19.23
2022-12-09T14:24:36.827Z,21.17
2022-12-09T14:27:24.566Z,21.07
2022-12-09T14:30:41.133Z,24.77
2022-12-09T14:33:32.753Z,17.57
2022-12-09T14:36:28.059Z,18.53
2022-12-09T14:39:24.970Z,19.87
2022-12-09T14:42:23.588Z,25.17
2022-12-09T14:45:29.275Z,21.47
2022-12-09T14:48:20.954Z,19.10
2022-12-09T14:51:10.704Z,18.20
2022-12-09T14:54:01.056Z,18.20
2022-12-09T14:56:53.022Z,19.60
2022-12-09T14:59:50.260Z,16.60
2022-12-09T15:02:37.048Z,12.67
2022-12-09T15:05:24.363Z,11.80
2022-12-09T15:08:29.675Z,16.20
2022-12-09T15:11:20.152Z,16.27
2022-12-09T15:14:28.563Z,13.00
2022-12-09T15:17:24.289Z,11.53
2022-12-09T15:20:24.287Z,13.90
2022-12-09T15:23:22.903Z,11.10
2022-12-09T15:26:20.966Z,11.50
2022-12-09T15:29:20.517Z,12.93
2022-12-09T15:32:20.785Z,13.67
2022-12-09T15:35:17.603Z,10.30
2022-12-09T15:38:08.871Z,11.63
2022-12-09T15:41:16.694Z,12.70
2022-12-09T15:44:08.253Z,15.00
2022-12-09T15:46:58.700Z,15.40
2022-12-09T15:49:51.254Z,13.57
2022-12-09T15:52:45.132Z,15.00
2022-12-09T15:55:37.808Z,13.37
2022-12-09T15:58:27.246Z,13.17
2022-12-09T16:01:21.315Z,11.83
2022-12-09T16:04:10.915Z,9.97
2022-12-09T16:06:58.095Z,12.53
2022-12-09T16:10:03.499Z,10.50
2022-12-09T16:13:06.167Z,12.73
2022-12-09T16:15:55.201Z,14.43
2022-12-09T16:18:49.942Z,9.40
2022-12-09T16:21:38.177Z,13.37
2022-12-09T16:24:28.227Z,10.13
2022-12-09T16:27:27.862Z,11.47
2022-12-09T16:30:17.385Z,12.83
2022-12-09T16:33:05.026Z,11.87
2022-12-09T16:35:59.868Z,11.30
2022-12-09T16:39:25.339Z,9.63
2022-12-09T16:42:22.783Z,14.47
2022-12-09T16:45:25.326Z,13.07
2022-12-09T16:48:13.497Z,17.67
2022-12-09T16:51:07.118Z,8.77
2022-12-09T16:53:56.152Z,12.67
2022-12-09T16:56:42.660Z,9.20
2022-12-09T16:59:37.087Z,12.90
2022-12-09T17:02:31.815Z,14.50
2022-12-09T17:05:18.737Z,21.27
2022-12-09T17:08:05.679Z,12.40
2022-12-09T17:10:53.955Z,15.20
2022-12-09T17:13:40.885Z,12.33
2022-12-09T17:16:27.668Z,12.73
2022-12-09T17:19:15.030Z,13.10
2022-12-09T17:22:01.685Z,13.07
2022-12-09T17:24:48.503Z,12.73
2022-12-09T17:27:37.575Z,12.30
2022-12-09T17:30:24.129Z,12.03
2022-12-09T17:33:10.859Z,17.23
2022-12-09T17:35:59.256Z,10.27
2022-12-09T17:38:46.178Z,17.20
2022-12-09T17:41:32.959Z,12.67
2022-12-09T17:44:22.176Z,18.37
2022-12-09T17:47:08.768Z,12.53
2022-12-09T17:49:55.637Z,14.10
2022-12-09T17:52:43.220Z,12.17
2022-12-09T17:55:30.048Z,14.40
2022-12-09T17:58:17.135Z,16.10
2022-12-09T18:01:05.310Z,15.23
2022-12-09T18:03:56.822Z,18.50
2022-12-09T18:06:46.152Z,16.20
2022-12-09T18:09:33.016Z,18.50
2022-12-09T18:12:19.663Z,23.07
2022-12-09T18:15:06.936Z,20.03
2022-12-09T18:17:55.100Z,14.20
2022-12-09T18:20:42.010Z,17.83
2022-12-09T18:23:29.959Z,19.57
2022-12-09T18:26:19.861Z,13.03
2022-12-09T18:29:06.929Z,14.93
2022-12-09T18:31:56.536Z,20.60
2022-12-09T18:34:46.418Z,12.77
2022-12-09T18:37:33.282Z,11.97
2022-12-09T18:40:22.976Z,25.23
2022-12-09T18:43:10.202Z,15.83
2022-12-09T18:45:56.987Z,17.03
2022-12-09T18:48:44.245Z,14.50
2022-12-09T18:51:32.997Z,16.93
2022-12-09T18:54:23.420Z,26.57
2022-12-09T18:57:10.201Z,17.73
2022-12-09T18:59:56.898Z,23.07
2022-12-09T19:02:44.420Z,13.57
2022-12-09T19:05:31.422Z,18.43
2022-12-09T19:08:19.301Z,11.30
2022-12-09T19:11:06.280Z,20.03
2022-12-09T19:13:52.836Z,16.23
2022-12-09T19:16:39.707Z,12.43
2022-12-09T19:19:28.449Z,9.43
2022-12-09T19:22:15.613Z,13.03
2022-12-09T19:25:03.447Z,15.00
2022-12-09T19:27:50.575Z,14.57
2022-12-09T19:30:37.387Z,10.77
2022-12-09T19:33:24.897Z,20.47
2022-12-09T19:36:11.910Z,14.90
2022-12-09T19:38:58.763Z,17.63
2022-12-09T19:41:47.821Z,20.90
2022-12-09T19:45:00.218Z,18.40
2022-12-09T19:47:42.900Z,17.20
2022-12-09T19:50:29.629Z,17.60
2022-12-09T19:53:16.439Z,20.20
2022-12-09T19:56:03.994Z,13.33
2022-12-09T19:58:52.753Z,13.40
2022-12-09T20:01:44.326Z,18.23
2022-12-09T20:04:49.153Z,19.77
2022-12-09T20:07:40.381Z,16.90
2022-12-09T20:10:28.996Z,17.83
2022-12-09T20:13:17.285Z,15.70
2022-12-09T20:16:06.381Z,23.87
2022-12-09T20:18:55.584Z,17.70
2022-12-09T20:21:42.310Z,22.13
2022-12-09T20:24:30.476Z,20.83
2022-12-09T20:27:17.801Z,19.03
2022-12-09T20:30:05.497Z,21.27
2022-12-09T20:32:54.275Z,23.13
2022-12-09T20:35:41.197Z,21.90
2022-12-09T20:38:28.007Z,18.47
2022-12-09T20:41:15.410Z,24.30
2022-12-09T20:44:02.270Z,22.60
2022-12-09T20:46:51.266Z,25.40
2022-12-09T20:49:39.095Z,20.93
2022-12-09T20:52:26.387Z,19.23
2022-12-09T20:55:12.801Z,23.53
2022-12-09T20:57:59.318Z,19.77
2022-12-09T21:00:46.597Z,24.77
2022-12-09T21:03:33.585Z,18.30
2022-12-09T21:06:29.412Z,20.43
2022-12-09T21:09:18.869Z,18.33
2022-12-09T21:12:05.590Z,19.07
2022-12-09T21:14:52.223Z,18.90
2022-12-09T21:17:39.003Z,16.57
2022-12-09T21:20:25.667Z,17.83
2022-12-09T21:23:33.279Z,19.17
2022-12-09T21:26:22.458Z,17.20
2022-12-09T21:29:10.704Z,14.53
2022-12-09T21:31:57.265Z,19.67
2022-12-09T21:34:44.240Z,15.73
2022-12-09T21:37:30.830Z,19.60
2022-12-09T21:40:19.074Z,14.37
2022-12-09T21:43:06.198Z,17.53
2022-12-09T21:45:53.005Z,14.20
2022-12-09T21:48:41.787Z,21.87
2022-12-09T21:51:28.471Z,21.73
2022-12-09T21:54:16.051Z,19.53
2022-12-09T21:57:04.449Z,19.87
2022-12-09T21:59:51.872Z,14.83
2022-12-09T22:02:43.578Z,16.83
2022-12-09T22:10:13.892Z,20.00
2022-12-09T22:13:01.589Z,19.53
2022-12-09T22:15:48.820Z,17.73
2022-12-09T22:18:35.808Z,20.40
2022-12-09T22:21:26.045Z,17.80
2022-12-09T22:24:15.146Z,16.43
2022-12-09T22:27:01.889Z,16.77
2022-12-09T22:29:50.146Z,18.57
2022-12-09T22:32:41.489Z,16.53
2022-12-09T22:35:32.548Z,20.83
2022-12-09T22:38:19.505Z,18.93
2022-12-09T22:41:10.561Z,15.77
2022-12-09T22:44:02.065Z,24.53
2022-12-09T22:46:50.793Z,17.33
2022-12-09T22:49:39.349Z,24.10
2022-12-09T22:56:58.902Z,14.07
2022-12-09T22:59:45.879Z,14.57
2022-12-09T23:02:34.582Z,15.67
2022-12-09T23:05:21.257Z,18.33
2022-12-09T23:08:08.317Z,22.47
2022-12-09T23:10:55.022Z,16.20
2022-12-09T23:13:43.110Z,12.27
2022-12-09T23:16:29.748Z,16.60
2022-12-09T23:19:17.889Z,17.40
2022-12-09T23:22:04.410Z,17.63
2022-12-09T23:24:51.209Z,19.47
2022-12-09T23:27:38.300Z,13.43
2022-12-09T23:30:24.825Z,18.00
2022-12-09T23:33:11.512Z,18.17
2022-12-09T23:35:59.680Z,18.40
2022-12-09T23:38:48.340Z,23.73
2022-12-09T23:41:35.148Z,15.70
2022-12-09T23:44:21.793Z,19.00
2022-12-09T23:47:08.659Z,17.77
2022-12-09T23:49:55.623Z,16.93
2022-12-09T23:52:43.491Z,16.97
2022-12-09T23:55:30.294Z,16.07
2022-12-09T23:58:17.096Z,23.13
